Time;durP1;ratioP1;P1;durP2;ratioP2;P2;SDS_P1;SDS_P2;PMS_P1;PMS_P2;Temp;Humidity;BMP_temperature;BMP_pressure;BME280_temperature;BME280_humidity;BME280_pressure;Samples;Min_cycle;Max_cycle;Signal;HPM_P1;HPM_P2
2022/07/19 00:00:28;;;;;;;2.58;1.75;;;27.60;51.60;;;;;;5034268;28;20021;-72
2022/07/19 00:02:53;;;;;;;4.35;1.90;;;27.50;51.90;;;;;;5033672;28;20021;-72
2022/07/19 00:05:19;;;;;;;3.85;1.90;;;27.40;52.10;;;;;;5033403;28;20437;-72
2022/07/19 00:07:45;;;;;;;4.88;1.80;;;27.20;52.30;;;;;;5033312;28;20030;-72
2022/07/19 00:10:13;;;;;;;3.38;1.80;;;27.20;52.50;;;;;;5030867;28;20037;-72
2022/07/19 00:12:39;;;;;;;4.22;1.60;;;27.10;52.50;;;;;;5033509;28;20132;-72
2022/07/19 00:15:07;;;;;;;3.42;1.73;;;27.10;52.50;;;;;;5033471;28;20061;-72
2022/07/19 00:17:33;;;;;;;4.25;1.60;;;27.20;52.60;;;;;;5032777;28;20064;-72
2022/07/19 00:19:59;;;;;;;3.58;1.50;;;27.20;52.60;;;;;;5033537;28;20018;-72
2022/07/19 00:22:25;;;;;;;3.45;1.20;;;27.20;52.50;;;;;;5032713;28;20182;-72
2022/07/19 00:24:51;;;;;;;2.50;1.65;;;27.30;52.70;;;;;;5033100;28;20072;-72
2022/07/19 00:27:16;;;;;;;4.10;2.00;;;27.30;52.70;;;;;;5032916;28;20025;-72
2022/07/19 00:29:42;;;;;;;5.85;1.90;;;27.30;52.80;;;;;;5032667;28;20456;-72
2022/07/19 00:32:07;;;;;;;2.42;1.50;;;27.10;53.00;;;;;;5033129;28;20373;-72
2022/07/19 00:34:33;;;;;;;3.55;1.70;;;27.10;53.00;;;;;;5032786;28;20052;-72
2022/07/19 00:36:59;;;;;;;6.65;2.67;;;27.10;53.00;;;;;;5033055;28;20033;-72
2022/07/19 00:39:24;;;;;;;4.15;2.17;;;27.10;52.90;;;;;;5032962;28;20025;-72
2022/07/19 00:41:50;;;;;;;3.55;2.17;;;27.20;53.00;;;;;;5032490;28;20408;-72
2022/07/19 00:44:16;;;;;;;2.97;1.98;;;27.20;53.00;;;;;;5032968;28;20061;-72
2022/07/19 00:46:41;;;;;;;2.72;1.60;;;27.10;53.10;;;;;;5032651;28;20048;-72
2022/07/19 00:49:07;;;;;;;4.25;1.90;;;27.10;53.20;;;;;;5032571;28;20021;-72
2022/07/19 00:51:40;;;;;;;3.08;1.98;;;27.10;53.30;;;;;;5032784;28;20042;-72
2022/07/19 00:54:07;;;;;;;4.25;1.80;;;27.10;53.30;;;;;;5032322;28;20096;-72
2022/07/19 00:56:34;;;;;;;4.53;2.00;;;27.10;53.30;;;;;;5032862;28;20112;-72
2022/07/19 00:59:02;;;;;;;4.18;2.67;;;27.00;53.30;;;;;;5031835;28;20029;-72
2022/07/19 01:01:28;;;;;;;4.55;3.15;;;27.00;53.40;;;;;;5032778;28;20045;-72
2022/07/19 01:03:55;;;;;;;7.30;3.25;;;27.00;53.30;;;;;;5032597;28;20033;-72
2022/07/19 01:06:21;;;;;;;4.97;3.38;;;26.90;53.30;;;;;;5032110;28;20112;-72
2022/07/19 01:08:47;;;;;;;6.32;3.38;;;26.90;53.50;;;;;;5029861;28;20026;-72
2022/07/19 01:11:13;;;;;;;9.02;3.22;;;26.90;53.60;;;;;;5032349;28;20499;-72
2022/07/19 01:13:38;;;;;;;3.65;2.88;;;26.90;53.60;;;;;;5032283;28;20025;-73
2022/07/19 01:16:04;;;;;;;4.18;2.72;;;26.90;54.00;;;;;;5031995;28;20377;-73
2022/07/19 01:18:30;;;;;;;5.60;2.72;;;26.90;54.00;;;;;;5032010;28;20021;-72
2022/07/19 01:20:57;;;;;;;4.97;2.50;;;26.90;54.30;;;;;;5032470;28;20079;-72
2022/07/19 01:23:23;;;;;;;4.90;2.40;;;26.90;54.50;;;;;;5032384;28;20032;-72
2022/07/19 01:25:49;;;;;;;4.70;2.67;;;26.90;54.70;;;;;;5031861;28;20021;-72
2022/07/19 01:28:15;;;;;;;6.32;2.13;;;26.80;55.00;;;;;;5031987;28;20526;-72
2022/07/19 01:30:41;;;;;;;8.90;2.42;;;26.60;55.00;;;;;;5032006;28;20025;-72
2022/07/19 01:33:07;;;;;;;5.72;2.20;;;26.50;55.20;;;;;;5032253;28;20025;-72
2022/07/19 01:35:32;;;;;;;4.80;1.88;;;26.40;55.70;;;;;;5031807;28;20041;-72
2022/07/19 01:37:58;;;;;;;3.10;1.70;;;26.20;55.80;;;;;;5032109;28;20102;-72
2022/07/19 01:40:25;;;;;;;5.70;2.08;;;26.10;56.00;;;;;;5031436;28;20071;-72
2022/07/19 01:42:51;;;;;;;2.35;1.60;;;25.90;56.20;;;;;;5031813;28;20061;-72
2022/07/19 01:45:18;;;;;;;3.53;1.98;;;25.90;56.40;;;;;;5031852;28;20029;-72
2022/07/19 01:47:44;;;;;;;3.42;1.30;;;25.90;56.20;;;;;;5031779;28;20476;-72
2022/07/19 01:50:12;;;;;;;1.90;1.15;;;26.00;56.20;;;;;;5031757;28;20476;-72
2022/07/19 01:52:38;;;;;;;1.83;1.40;;;26.10;56.00;;;;;;5031501;28;20033;-72
2022/07/19 01:55:04;;;;;;;2.67;1.98;;;26.20;55.90;;;;;;5031860;28;20083;-72
2022/07/19 01:57:30;;;;;;;3.17;1.60;;;26.20;55.80;;;;;;5031493;28;20037;-72
2022/07/19 01:59:56;;;;;;;4.25;1.58;;;26.20;55.70;;;;;;5031887;28;20029;-72
2022/07/19 02:02:22;;;;;;;4.38;1.55;;;26.20;55.80;;;;;;5031803;28;20024;-72
2022/07/19 02:04:48;;;;;;;4.25;1.70;;;26.20;55.90;;;;;;5031329;28;20045;-72
2022/07/19 02:07:14;;;;;;;4.78;1.58;;;26.20;55.80;;;;;;5031751;28;20456;-71
2022/07/19 02:09:39;;;;;;;3.17;1.88;;;26.20;55.70;;;;;;5031736;28;20380;-72
2022/07/19 02:12:05;;;;;;;4.47;1.60;;;26.30;55.70;;;;;;5031551;28;20042;-72
2022/07/19 02:14:31;;;;;;;3.28;1.20;;;26.30;55.50;;;;;;5031352;28;20061;-72
2022/07/19 02:16:56;;;;;;;5.25;1.83;;;26.30;55.20;;;;;;5031317;28;20114;-72
2022/07/19 02:19:22;;;;;;;4.07;1.83;;;26.30;55.00;;;;;;5031216;28;20083;-72
2022/07/19 02:21:48;;;;;;;2.13;1.10;;;26.30;55.20;;;;;;5031647;28;20034;-72
2022/07/19 02:24:14;;;;;;;2.15;1.40;;;26.20;55.20;;;;;;5031941;28;20021;-71
2022/07/19 02:26:39;;;;;;;2.90;1.30;;;26.30;55.10;;;;;;5031348;28;20052;-71
2022/07/19 02:29:05;;;;;;;3.35;1.48;;;26.30;54.40;;;;;;5031413;28;20037;-71
2022/07/19 02:31:31;;;;;;;5.32;1.45;;;26.30;54.30;;;;;;5031080;28;20468;-71
2022/07/19 02:33:57;;;;;;;3.22;1.55;;;26.30;53.70;;;;;;5031576;28;20033;-72
2022/07/19 02:36:23;;;;;;;2.72;1.52;;;26.30;53.80;;;;;;5031612;28;20392;-71
2022/07/19 02:38:48;;;;;;;1.85;1.30;;;26.30;53.80;;;;;;5031305;28;20026;-71
2022/07/19 02:41:14;;;;;;;6.47;1.42;;;26.30;53.60;;;;;;5031379;28;20120;-71
2022/07/19 02:43:40;;;;;;;4.03;1.25;;;26.30;54.00;;;;;;5005566;28;20052;-71
2022/07/19 02:46:06;;;;;;;3.25;1.30;;;26.30;53.50;;;;;;4974018;28;20029;-71
2022/07/19 02:48:32;;;;;;;3.42;1.63;;;26.30;53.50;;;;;;4974576;28;20048;-72
2022/07/19 02:50:57;;;;;;;4.13;1.20;;;26.30;53.50;;;;;;5000062;28;20372;-72
2022/07/19 02:53:23;;;;;;;2.28;1.17;;;26.30;53.50;;;;;;5034993;28;20029;-72
2022/07/19 02:55:49;;;;;;;2.45;1.30;;;26.30;53.40;;;;;;5034550;28;20081;-72
2022/07/19 02:58:15;;;;;;;1.92;1.23;;;26.30;53.40;;;;;;5034950;28;20029;-72
2022/07/19 03:00:41;;;;;;;4.85;1.52;;;26.30;53.30;;;;;;5034958;28;20222;-72
2022/07/19 03:05:51;;;;;;;3.47;1.52;;;26.30;53.60;;;;;;5034434;28;20064;-72
2022/07/19 03:08:17;;;;;;;3.47;1.40;;;26.30;53.30;;;;;;5035078;28;20461;-72
2022/07/19 03:10:42;;;;;;;4.05;1.50;;;26.30;53.30;;;;;;5034609;28;20100;-72
2022/07/19 03:13:08;;;;;;;2.72;1.10;;;26.30;53.20;;;;;;5034398;28;20108;-72
2022/07/19 03:15:35;;;;;;;3.40;1.20;;;26.20;53.00;;;;;;5034377;28;20037;-72
2022/07/19 03:18:01;;;;;;;3.63;1.20;;;26.20;53.10;;;;;;5034341;28;20097;-73
2022/07/19 03:20:26;;;;;;;2.80;1.52;;;26.20;53.20;;;;;;5034617;28;20476;-73
2022/07/19 03:22:52;;;;;;;3.72;1.27;;;26.20;53.10;;;;;;5034140;28;20079;-73
2022/07/19 03:25:17;;;;;;;5.15;1.38;;;26.20;53.10;;;;;;5034431;28;20037;-73
2022/07/19 03:27:43;;;;;;;2.15;1.20;;;26.30;53.00;;;;;;5033869;28;20122;-74
2022/07/19 03:30:09;;;;;;;2.20;1.20;;;26.20;52.90;;;;;;5034578;28;20045;-74
2022/07/19 03:32:34;;;;;;;1.40;0.95;;;26.10;52.90;;;;;;5034415;28;20022;-74
2022/07/19 03:35:00;;;;;;;4.20;1.30;;;26.10;53.10;;;;;;5034174;28;20028;-74
2022/07/19 03:37:26;;;;;;;3.33;1.15;;;26.00;53.10;;;;;;5033818;28;20060;-74
2022/07/19 03:39:51;;;;;;;3.72;1.13;;;26.00;53.20;;;;;;5034283;28;20036;-74
2022/07/19 03:42:17;;;;;;;2.13;1.10;;;26.00;53.40;;;;;;5033630;28;20073;-74
2022/07/19 03:44:42;;;;;;;4.13;1.10;;;26.00;53.20;;;;;;5033946;28;20071;-74
2022/07/19 03:47:08;;;;;;;4.15;1.55;;;26.00;53.20;;;;;;5033930;28;20030;-74
2022/07/19 03:49:33;;;;;;;2.80;1.15;;;26.00;53.00;;;;;;5033972;28;20361;-73
2022/07/19 03:51:59;;;;;;;2.75;1.40;;;26.00;53.10;;;;;;5033679;28;20053;-73
2022/07/19 03:54:24;;;;;;;4.72;1.15;;;25.90;52.90;;;;;;5033666;28;20404;-74
2022/07/19 03:56:50;;;;;;;2.78;1.13;;;25.90;52.60;;;;;;5033438;28;20041;-73
2022/07/19 03:59:16;;;;;;;2.20;1.20;;;25.90;52.60;;;;;;5034079;28;20029;-73
2022/07/19 04:01:42;;;;;;;4.60;0.80;;;25.90;52.40;;;;;;5033181;28;20029;-73
2022/07/19 04:04:07;;;;;;;3.08;0.75;;;25.90;52.40;;;;;;5032446;28;20053;-73
2022/07/19 04:06:33;;;;;;;2.13;0.93;;;25.90;52.20;;;;;;5033412;28;20037;-73
2022/07/19 04:08:58;;;;;;;3.85;1.20;;;25.90;52.20;;;;;;5033657;28;20468;-73
2022/07/19 04:11:24;;;;;;;2.90;1.10;;;25.80;52.20;;;;;;5033471;28;20048;-73
2022/07/19 04:13:50;;;;;;;2.03;1.10;;;25.80;52.40;;;;;;5031452;28;20052;-73
2022/07/19 04:16:16;;;;;;;2.95;0.90;;;25.70;52.30;;;;;;5032844;28;20489;-73
2022/07/19 04:18:41;;;;;;;4.25;0.90;;;25.70;52.30;;;;;;5032965;28;20061;-73
2022/07/19 04:21:08;;;;;;;4.18;0.95;;;25.70;52.20;;;;;;5033374;28;20030;-72
2022/07/19 04:23:33;;;;;;;3.33;0.70;;;25.80;52.10;;;;;;5033296;28;20021;-72
2022/07/19 04:25:59;;;;;;;3.42;0.88;;;25.80;51.90;;;;;;5032789;28;20052;-72
2022/07/19 04:28:25;;;;;;;2.55;0.98;;;25.90;51.90;;;;;;5032961;28;20033;-72
2022/07/19 04:30:50;;;;;;;3.17;0.90;;;25.90;51.70;;;;;;5032708;28;20037;-72
2022/07/19 04:33:18;;;;;;;1.25;0.70;;;25.90;51.80;;;;;;5032979;28;20033;-73
2022/07/19 04:35:43;;;;;;;3.22;0.60;;;26.00;52.00;;;;;;5030530;28;20064;-73
2022/07/19 04:38:09;;;;;;;2.75;0.75;;;25.90;51.50;;;;;;5032696;28;20099;-73
2022/07/19 04:40:35;;;;;;;3.38;1.02;;;26.00;51.50;;;;;;5033096;28;20108;-73
2022/07/19 04:43:01;;;;;;;3.85;1.08;;;26.00;51.40;;;;;;5032802;28;20493;-72
2022/07/19 04:45:27;;;;;;;4.22;1.33;;;26.00;51.10;;;;;;5032853;28;20484;-72
2022/07/19 04:47:53;;;;;;;3.17;1.10;;;26.00;50.80;;;;;;5032584;28;20389;-72
2022/07/19 04:50:19;;;;;;;2.75;1.10;;;26.00;50.40;;;;;;5032674;28;20040;-72
2022/07/19 04:52:44;;;;;;;3.20;1.30;;;26.10;50.50;;;;;;5032205;28;20022;-72
2022/07/19 04:55:10;;;;;;;1.55;0.93;;;26.00;50.80;;;;;;5032508;28;20040;-72
2022/07/19 04:57:36;;;;;;;2.33;1.15;;;26.00;51.00;;;;;;5032405;28;20031;-72
2022/07/19 05:00:06;;;;;;;2.72;0.80;;;26.00;51.00;;;;;;5032157;28;20042;-72
2022/07/19 05:02:32;;;;;;;4.90;1.40;;;26.00;51.30;;;;;;5031950;28;20484;-73
2022/07/19 05:04:57;;;;;;;3.70;1.15;;;26.00;51.60;;;;;;5032428;28;20075;-88
2022/07/19 05:07:25;;;;;;;3.08;1.42;;;26.00;52.40;;;;;;5032689;28;20458;-87
2022/07/19 05:09:50;;;;;;;3.33;1.08;;;26.00;53.20;;;;;;5032311;28;20030;-89
2022/07/19 05:12:16;;;;;;;4.22;1.33;;;26.00;54.20;;;;;;5031704;28;20034;-85
2022/07/19 05:14:41;;;;;;;2.95;1.40;;;26.00;54.40;;;;;;5032101;28;20025;-88
2022/07/19 05:17:07;;;;;;;2.55;1.25;;;26.00;54.30;;;;;;5032285;28;20035;-89
2022/07/19 05:19:33;;;;;;;5.45;1.55;;;26.00;54.20;;;;;;5032439;28;20021;-83
2022/07/19 05:21:58;;;;;;;7.18;1.20;;;26.00;54.00;;;;;;5033359;28;20027;-88
2022/07/19 05:24:24;;;;;;;4.53;1.48;;;26.00;53.80;;;;;;5032350;28;20025;-81
2022/07/19 05:26:49;;;;;;;5.97;1.58;;;26.00;52.90;;;;;;5032087;28;20111;-83
2022/07/19 05:29:15;;;;;;;10.90;1.85;;;26.00;53.20;;;;;;5032395;28;20032;-81
2022/07/19 05:31:41;;;;;;;8.77;2.55;;;26.00;53.10;;;;;;5032286;28;20451;-81
2022/07/19 05:34:06;;;;;;;3.58;1.85;;;26.00;53.10;;;;;;5032024;28;20353;-84
2022/07/19 05:36:32;;;;;;;3.58;1.80;;;26.00;53.50;;;;;;5031681;28;20232;-82
2022/07/19 05:38:57;;;;;;;9.07;2.35;;;26.00;53.30;;;;;;5038667;28;20364;-80
2022/07/19 05:41:24;;;;;;;7.03;2.50;;;26.00;53.10;;;;;;5052985;28;20325;-84
2022/07/19 05:43:50;;;;;;;7.03;2.75;;;26.00;53.10;;;;;;5040315;28;20052;-80
2022/07/19 05:46:16;;;;;;;5.85;2.88;;;26.00;53.00;;;;;;5032258;28;20033;-83
2022/07/19 05:48:43;;;;;;;7.45;3.03;;;26.00;53.00;;;;;;5031364;28;20048;-79
2022/07/19 05:51:09;;;;;;;4.47;2.90;;;26.00;52.90;;;;;;5031641;28;20017;-77
2022/07/19 05:53:36;;;;;;;7.50;3.80;;;26.00;52.90;;;;;;5031912;28;20022;-77
2022/07/19 05:56:03;;;;;;;6.88;3.05;;;26.10;52.80;;;;;;5032135;28;20441;-76
2022/07/19 05:58:29;;;;;;;6.40;3.28;;;26.10;53.10;;;;;;5031390;28;20060;-83
2022/07/19 06:03:55;;;;;;;6.78;2.90;;;26.10;53.20;;;;;;5022514;28;20049;-77
2022/07/19 06:06:22;;;;;;;11.18;2.90;;;26.10;53.30;;;;;;5031601;28;20038;-77
2022/07/19 06:08:48;;;;;;;6.63;2.92;;;26.20;53.20;;;;;;5030924;28;20538;-76
2022/07/19 06:11:15;;;;;;;9.57;4.00;;;26.20;53.40;;;;;;5030678;28;20040;-77
2022/07/19 06:13:42;;;;;;;5.75;3.20;;;26.30;52.80;;;;;;5028713;28;20116;-77
2022/07/19 06:16:07;;;;;;;8.63;3.67;;;26.30;52.90;;;;;;5031447;28;20116;-77
2022/07/19 06:18:34;;;;;;;13.10;3.55;;;26.30;52.90;;;;;;5031022;28;20113;-77
2022/07/19 06:21:10;;;;;;;10.40;4.03;;;26.40;52.70;;;;;;5031453;28;20037;-78
2022/07/19 06:23:36;;;;;;;4.72;3.25;;;26.50;53.30;;;;;;5031505;28;20029;-78
2022/07/19 06:26:03;;;;;;;10.35;3.85;;;26.60;52.60;;;;;;5035420;28;20029;-77
2022/07/19 06:28:28;;;;;;;7.38;2.70;;;26.60;52.60;;;;;;5035431;28;20029;-78
2022/07/19 06:30:54;;;;;;;5.28;3.00;;;26.60;52.70;;;;;;5031528;28;20460;-83
2022/07/19 06:33:20;;;;;;;11.30;4.15;;;26.70;52.90;;;;;;5035278;28;20053;-77
2022/07/19 06:35:46;;;;;;;6.70;2.88;;;26.70;52.70;;;;;;5035472;28;20088;-78
2022/07/19 06:38:12;;;;;;;8.80;3.00;;;26.70;52.90;;;;;;5034206;28;20451;-78
2022/07/19 06:40:38;;;;;;;8.32;3.75;;;26.80;53.20;;;;;;5035256;28;20534;-78
2022/07/19 06:43:03;;;;;;;9.40;3.70;;;26.90;53.10;;;;;;5035987;28;20053;-72
2022/07/19 06:45:29;;;;;;;9.85;3.42;;;27.00;53.00;;;;;;5036171;28;20029;-72
2022/07/19 06:47:55;;;;;;;9.25;4.15;;;27.10;52.70;;;;;;5036340;28;20025;-72
2022/07/19 06:50:22;;;;;;;7.82;3.92;;;27.20;53.00;;;;;;5033974;28;20029;-72
2022/07/19 06:52:48;;;;;;;8.10;3.38;;;27.20;52.90;;;;;;5032533;28;20036;-72
2022/07/19 06:55:13;;;;;;;7.40;3.40;;;27.20;53.20;;;;;;5032046;28;20022;-72
2022/07/19 06:57:39;;;;;;;10.45;4.22;;;27.30;53.00;;;;;;5032152;28;20060;-72
2022/07/19 07:00:07;;;;;;;11.32;4.30;;;27.30;53.60;;;;;;5031950;28;20025;-72
2022/07/19 07:02:35;;;;;;;9.70;4.35;;;27.30;53.20;;;;;;5032092;28;20030;-72
2022/07/19 07:05:00;;;;;;;7.97;3.40;;;27.40;53.80;;;;;;5033178;28;20171;-72
2022/07/19 07:07:26;;;;;;;15.73;4.70;;;27.40;53.70;;;;;;5035027;28;20464;-72
2022/07/19 07:09:51;;;;;;;8.05;4.03;;;27.60;53.60;;;;;;5035919;28;20021;-72
2022/07/19 07:12:17;;;;;;;11.40;3.72;;;27.50;53.50;;;;;;5035767;28;20032;-72
2022/07/19 07:14:42;;;;;;;12.70;3.92;;;27.50;53.50;;;;;;5035284;28;20491;-72
2022/07/19 07:17:08;;;;;;;10.60;3.88;;;27.60;54.00;;;;;;5035660;28;20040;-72
2022/07/19 07:19:34;;;;;;;10.02;4.00;;;27.70;54.00;;;;;;5035795;28;20079;-72
2022/07/19 07:22:01;;;;;;;8.63;3.33;;;27.70;53.50;;;;;;5035408;28;20075;-72
2022/07/19 07:24:27;;;;;;;11.82;3.60;;;27.70;53.60;;;;;;5035154;28;20029;-72
2022/07/19 07:26:53;;;;;;;12.80;4.68;;;27.90;54.10;;;;;;5035261;28;20032;-72
2022/07/19 07:29:19;;;;;;;9.48;3.65;;;27.90;54.30;;;;;;5034958;28;20105;-72
2022/07/19 07:31:44;;;;;;;7.50;3.10;;;28.00;53.80;;;;;;5035582;28;20104;-72
2022/07/19 07:34:10;;;;;;;13.60;3.75;;;28.10;54.70;;;;;;5035248;28;20057;-72
2022/07/19 07:36:36;;;;;;;10.38;2.90;;;28.10;53.80;;;;;;5034819;28;20075;-73
2022/07/19 07:39:02;;;;;;;7.05;3.10;;;28.20;53.80;;;;;;5034575;28;20100;-72
2022/07/19 07:41:28;;;;;;;10.75;3.53;;;28.30;55.30;;;;;;5034511;28;20067;-72
2022/07/19 07:43:53;;;;;;;8.90;3.15;;;28.50;53.70;;;;;;5034498;28;20061;-73
2022/07/19 07:46:19;;;;;;;10.18;3.10;;;28.50;54.10;;;;;;5034618;28;20373;-72
2022/07/19 07:48:44;;;;;;;8.15;2.83;;;28.60;54.30;;;;;;5034874;28;20183;-73
2022/07/19 07:51:10;;;;;;;7.70;2.65;;;28.70;54.40;;;;;;5034848;28;20028;-73
2022/07/19 07:53:36;;;;;;;8.48;2.65;;;28.80;54.40;;;;;;5035027;28;20369;-72
2022/07/19 07:56:01;;;;;;;16.70;4.13;;;28.80;54.00;;;;;;5034878;28;20041;-73
2022/07/19 07:58:27;;;;;;;9.07;3.30;;;28.80;53.10;;;;;;5035005;28;20037;-72
2022/07/19 08:00:52;;;;;;;6.40;3.13;;;28.90;53.50;;;;;;5034629;28;20053;-73
2022/07/19 08:03:18;;;;;;;8.85;3.15;;;29.00;53.30;;;;;;5034789;28;20026;-72
2022/07/19 08:05:47;;;;;;;8.63;2.83;;;29.00;53.50;;;;;;5034760;28;20102;-72
2022/07/19 08:08:16;;;;;;;7.00;2.28;;;29.10;54.30;;;;;;5034783;28;20049;-72
2022/07/19 08:10:42;;;;;;;3.45;1.75;;;29.20;54.60;;;;;;5034534;28;20018;-73
2022/07/19 08:13:08;;;;;;;5.10;1.98;;;29.30;51.20;;;;;;5034231;28;20099;-73
2022/07/19 08:15:38;;;;;;;6.85;1.73;;;29.30;51.60;;;;;;5034950;28;20104;-73
2022/07/19 08:18:04;;;;;;;10.32;1.98;;;29.40;51.80;;;;;;5034954;28;20053;-73
2022/07/19 08:20:30;;;;;;;7.22;1.80;;;29.60;51.40;;;;;;5034658;28;20030;-73
2022/07/19 08:22:55;;;;;;;5.05;1.95;;;29.60;50.70;;;;;;5034743;28;20036;-73
2022/07/19 08:25:21;;;;;;;10.02;1.95;;;29.70;51.10;;;;;;5034477;28;20048;-72
2022/07/19 08:27:46;;;;;;;7.95;1.73;;;29.70;51.60;;;;;;5033984;28;20057;-72
2022/07/19 08:30:13;;;;;;;8.20;1.70;;;29.90;51.90;;;;;;5034114;28;20359;-72
2022/07/19 08:32:39;;;;;;;6.18;1.70;;;30.10;50.60;;;;;;5034539;28;20037;-73
2022/07/19 08:35:06;;;;;;;5.13;1.50;;;30.10;50.80;;;;;;5034421;28;20025;-73
2022/07/19 08:37:31;;;;;;;6.38;1.60;;;30.30;51.50;;;;;;5033976;28;20361;-73
2022/07/19 08:39:57;;;;;;;4.20;1.50;;;30.40;51.10;;;;;;5034364;28;20025;-72
2022/07/19 08:42:24;;;;;;;8.00;2.40;;;30.60;50.70;;;;;;5033764;28;20049;-73
2022/07/19 08:44:52;;;;;;;6.47;1.70;;;30.70;49.80;;;;;;5034228;28;20032;-73
2022/07/19 08:47:19;;;;;;;5.65;1.77;;;30.80;49.60;;;;;;5033288;28;20025;-72
2022/07/19 08:49:45;;;;;;;8.18;1.58;;;30.90;48.60;;;;;;5034350;28;20030;-73
2022/07/19 08:52:11;;;;;;;5.40;1.58;;;30.90;48.60;;;;;;5033957;28;20538;-72
2022/07/19 08:54:37;;;;;;;5.13;1.63;;;31.00;48.90;;;;;;5033947;28;20028;-71
2022/07/19 08:59:48;;;;;;;7.00;1.50;;;31.20;50.00;;;;;;5033908;28;20114;-72
2022/07/19 09:02:14;;;;;;;14.68;1.85;;;31.30;47.90;;;;;;5033648;28;20052;-72
2022/07/19 09:04:40;;;;;;;8.82;1.50;;;31.50;48.20;;;;;;5033881;28;20109;-72
2022/07/19 09:07:05;;;;;;;5.90;1.55;;;31.50;47.30;;;;;;5033891;28;20040;-72
2022/07/19 09:09:34;;;;;;;7.07;1.20;;;31.50;48.20;;;;;;5033106;28;20029;-72
2022/07/19 09:12:01;;;;;;;4.45;1.25;;;31.80;47.10;;;;;;5033578;28;20021;-72
2022/07/19 09:14:30;;;;;;;4.45;1.60;;;31.80;46.50;;;;;;5033743;28;20026;-72
2022/07/19 09:17:01;;;;;;;8.82;1.70;;;31.80;46.70;;;;;;5033358;28;20049;-72
2022/07/19 09:19:28;;;;;;;5.38;1.58;;;31.80;47.20;;;;;;5033447;28;20033;-72
2022/07/19 09:21:58;;;;;;;6.22;1.35;;;31.90;46.50;;;;;;5033724;28;20025;-71
2022/07/19 09:24:24;;;;;;;6.32;1.83;;;31.90;46.00;;;;;;5033278;28;20087;-72
2022/07/19 09:26:59;;;;;;;6.97;1.05;;;31.90;46.70;;;;;;5033601;28;20083;-73
2022/07/19 09:29:25;;;;;;;6.82;1.75;;;32.00;46.70;;;;;;5033017;28;20485;-72
2022/07/19 09:32:05;;;;;;;4.40;1.25;;;32.00;46.80;;;;;;5033179;28;20439;-72
2022/07/19 09:34:55;;;;;;;4.28;1.00;;;32.20;45.00;;;;;;5033573;28;20114;-72
2022/07/19 09:37:25;;;;;;;5.53;1.38;;;32.20;45.60;;;;;;5032545;28;20087;-72
2022/07/19 09:39:53;;;;;;;4.50;1.45;;;32.40;46.00;;;;;;5033246;28;20030;-73
2022/07/19 09:42:33;;;;;;;5.40;1.40;;;32.50;45.30;;;;;;5033074;28;20042;-73
2022/07/19 09:45:04;;;;;;;4.93;1.60;;;32.70;44.20;;;;;;5033374;28;20022;-73
2022/07/19 09:47:35;;;;;;;5.28;1.27;;;32.70;44.70;;;;;;5033418;28;20028;-73
2022/07/19 09:50:03;;;;;;;6.07;1.15;;;32.90;44.40;;;;;;5033126;28;20076;-73
2022/07/19 09:52:30;;;;;;;7.53;1.45;;;33.00;44.70;;;;;;5033353;28;20440;-73
2022/07/19 09:54:57;;;;;;;7.50;1.73;;;33.10;44.00;;;;;;5032967;28;20034;-73
2022/07/19 09:57:24;;;;;;;6.78;1.40;;;33.20;43.70;;;;;;5033680;28;20065;-73
2022/07/19 09:59:54;;;;;;;3.88;1.30;;;33.20;43.60;;;;;;5039466;28;20025;-73
2022/07/19 10:02:21;;;;;;;6.07;1.98;;;33.30;44.00;;;;;;5039694;28;20502;-73
2022/07/19 10:04:48;;;;;;;4.40;1.45;;;33.40;45.40;;;;;;5039424;28;20064;-73
2022/07/19 10:07:16;;;;;;;5.00;1.40;;;33.60;43.90;;;;;;5039732;28;20108;-73
2022/07/19 10:09:42;;;;;;;5.07;1.90;;;33.60;43.50;;;;;;5039454;28;20403;-73
2022/07/19 10:12:08;;;;;;;6.80;1.60;;;33.60;44.20;;;;;;5039161;28;20022;-73
2022/07/19 10:14:34;;;;;;;4.57;1.33;;;33.60;44.10;;;;;;5039596;28;20036;-73
2022/07/19 10:17:04;;;;;;;3.63;1.50;;;33.60;43.60;;;;;;5039536;28;20037;-73
2022/07/19 10:19:40;;;;;;;4.80;1.70;;;33.60;44.50;;;;;;5039593;28;20027;-73
2022/07/19 10:22:12;;;;;;;5.38;1.60;;;33.80;44.80;;;;;;5039691;28;20025;-73
2022/07/19 10:25:04;;;;;;;10.98;1.63;;;33.90;43.90;;;;;;5039619;28;20384;-73
2022/07/19 10:27:29;;;;;;;3.58;1.30;;;34.10;44.80;;;;;;5035456;28;20033;-73
2022/07/19 10:29:58;;;;;;;15.02;1.90;;;34.30;44.60;;;;;;5039395;28;20030;-73
2022/07/19 10:32:29;;;;;;;4.72;1.90;;;34.40;43.30;;;;;;5021636;28;20031;-73
2022/07/19 10:35:22;;;;;;;4.53;1.55;;;34.30;41.80;;;;;;5039600;28;20017;-73
2022/07/19 10:37:53;;;;;;;9.10;1.88;;;34.30;42.20;;;;;;5039170;28;20037;-73
2022/07/19 10:40:45;;;;;;;7.00;1.65;;;34.40;42.40;;;;;;5039685;28;20376;-73
2022/07/19 10:43:14;;;;;;;7.05;1.40;;;34.40;43.00;;;;;;5035205;28;20045;-73
2022/07/19 10:46:04;;;;;;;4.13;1.63;;;34.50;43.10;;;;;;5039592;28;20052;-73
2022/07/19 10:48:38;;;;;;;12.55;1.55;;;34.50;42.60;;;;;;5039057;28;20021;-73
2022/07/19 10:51:04;;;;;;;3.85;1.52;;;34.60;43.00;;;;;;5039108;28;20036;-75
2022/07/19 10:53:42;;;;;;;7.35;1.42;;;34.70;40.40;;;;;;5039136;28;20049;-75
2022/07/19 10:56:25;;;;;;;6.10;1.60;;;34.80;42.00;;;;;;5039443;28;20064;-75
2022/07/19 10:58:53;;;;;;;10.70;1.80;;;35.10;41.90;;;;;;5039234;28;20029;-73
2022/07/19 11:01:20;;;;;;;3.85;1.40;;;35.20;41.30;;;;;;5039302;28;20025;-72
2022/07/19 11:03:47;;;;;;;5.15;1.60;;;35.30;40.80;;;;;;5037150;28;20099;-71
2022/07/19 11:06:27;;;;;;;5.47;1.48;;;35.20;39.50;;;;;;5038315;28;20127;-72
2022/07/19 11:08:54;;;;;;;3.72;1.20;;;35.30;39.60;;;;;;5039623;28;20025;-80
2022/07/19 11:11:21;;;;;;;4.40;1.50;;;35.40;39.70;;;;;;5046826;28;20029;-76
2022/07/19 11:13:52;;;;;;;5.68;1.40;;;35.40;38.30;;;;;;5034634;28;20053;-79
2022/07/19 11:16:18;;;;;;;6.30;1.25;;;35.60;38.40;;;;;;5034335;28;20488;-77
2022/07/19 11:18:45;;;;;;;12.45;1.80;;;35.60;39.10;;;;;;5034165;28;20034;-77
2022/07/19 11:21:12;;;;;;;4.20;1.13;;;35.80;39.80;;;;;;5034178;28;20104;-78
2022/07/19 11:23:39;;;;;;;4.45;1.30;;;35.90;39.80;;;;;;5034117;28;20437;-77
2022/07/19 11:26:13;;;;;;;4.65;1.20;;;36.00;39.00;;;;;;5034752;28;20033;-77
2022/07/19 11:28:41;;;;;;;3.70;1.15;;;36.00;39.10;;;;;;5033830;28;20029;-78
2022/07/19 11:31:18;;;;;;;5.32;1.30;;;36.20;38.40;;;;;;5034380;28;20022;-77
2022/07/19 11:33:45;;;;;;;4.80;1.15;;;36.20;38.20;;;;;;5035539;28;20037;-78
2022/07/19 11:36:12;;;;;;;7.72;1.65;;;36.30;37.90;;;;;;5035577;28;20033;-77
2022/07/19 11:38:37;;;;;;;4.25;1.20;;;36.30;38.40;;;;;;5035508;28;20037;-78
2022/07/19 11:41:06;;;;;;;5.30;1.63;;;36.40;38.10;;;;;;5035772;28;20559;-77
2022/07/19 11:43:32;;;;;;;2.20;1.15;;;36.40;37.40;;;;;;5035124;28;20103;-77
2022/07/19 11:45:58;;;;;;;7.47;1.70;;;36.50;38.10;;;;;;5035662;28;20022;-77
2022/07/19 11:48:29;;;;;;;5.50;1.42;;;36.60;38.60;;;;;;5038370;28;20037;-77
2022/07/19 11:51:12;;;;;;;6.60;1.42;;;36.70;38.30;;;;;;5035088;28;20034;-79
2022/07/19 11:53:39;;;;;;;4.22;1.40;;;36.70;38.80;;;;;;5031440;28;20503;-79
2022/07/19 11:56:15;;;;;;;3.58;1.30;;;36.70;38.40;;;;;;5033913;28;20126;-80
2022/07/19 11:58:43;;;;;;;2.92;1.30;;;36.70;38.90;;;;;;5034066;28;20033;-76
2022/07/19 12:01:08;;;;;;;5.15;1.60;;;36.90;39.10;;;;;;5015311;28;20026;-77
2022/07/19 12:03:35;;;;;;;6.45;1.50;;;36.90;38.60;;;;;;5028242;28;20025;-78
2022/07/19 12:06:05;;;;;;;7.57;1.25;;;36.90;38.40;;;;;;5055210;28;20074;-78
2022/07/19 12:08:43;;;;;;;3.40;1.20;;;36.90;38.40;;;;;;5055252;28;20029;-78
2022/07/19 12:11:20;;;;;;;3.08;0.93;;;37.00;38.60;;;;;;5054819;28;20032;-77
2022/07/19 12:13:46;;;;;;;2.65;1.02;;;37.00;38.30;;;;;;5054812;28;20040;-77
2022/07/19 12:16:15;;;;;;;4.30;1.00;;;37.10;38.20;;;;;;5044190;28;20159;-77
2022/07/19 12:18:48;;;;;;;7.55;1.15;;;37.20;38.50;;;;;;5034561;28;20029;-75
2022/07/19 12:21:32;;;;;;;6.45;1.10;;;37.30;37.90;;;;;;5033992;28;20021;-76
2022/07/19 12:24:17;;;;;;;8.30;1.70;;;37.40;38.10;;;;;;5034806;28;20040;-76
2022/07/19 12:26:55;;;;;;;3.60;0.80;;;37.40;38.10;;;;;;5034961;28;20022;-76
2022/07/19 12:29:45;;;;;;;5.95;1.00;;;37.50;38.40;;;;;;5033687;28;20079;-76
2022/07/19 12:32:25;;;;;;;1.60;0.70;;;37.60;37.80;;;;;;5023717;28;20035;-76
2022/07/19 12:34:59;;;;;;;1.40;1.00;;;37.70;37.00;;;;;;5031908;28;20036;-76
2022/07/19 12:37:31;;;;;;;3.40;0.93;;;37.70;36.90;;;;;;5030084;28;20038;-74
2022/07/19 12:40:07;;;;;;;6.22;0.85;;;37.80;37.30;;;;;;5034189;28;20120;-77
2022/07/19 12:42:59;;;;;;;5.15;1.10;;;37.80;36.10;;;;;;5033947;28;20034;-77
2022/07/19 12:45:25;;;;;;;;;;;37.80;36.40;;;;;;5034765;28;20029;-75
2022/07/19 12:47:51;;;;;;;2.65;0.77;;;37.80;36.00;;;;;;5034557;28;19912;-77
2022/07/19 12:50:24;;;;;;;6.03;0.75;;;37.70;36.60;;;;;;5033988;28;20021;-76
2022/07/19 12:52:53;;;;;;;4.50;1.00;;;37.80;36.30;;;;;;5034180;28;20104;-74
2022/07/19 12:55:19;;;;;;;2.47;1.02;;;37.80;36.10;;;;;;5031853;28;20507;-81